sensor_id;sensor_type;location;lat;lon;timestamp;temperature;humidity
16384;DHT22;8301;51.440;6.610;2023-04-25T00:01:27;5.30;99.90
16384;DHT22;8301;51.440;6.610;2023-04-25T00:03:54;5.30;99.90
16384;DHT22;8301;51.440;6.610;2023-04-25T00:06:21;5.30;99.90
16384;DHT22;8301;51.440;6.610;2023-04-25T00:08:50;5.30;99.90
16384;DHT22;8301;51.440;6.610;2023-04-25T00:11:16;5.20;99.90
16384;DHT22;8301;51.440;6.610;2023-04-25T00:13:43;5.10;99.90
16384;DHT22;8301;51.440;6.610;2023-04-25T00:16:13;5.00;99.90
16384;DHT22;8301;51.440;6.610;2023-04-25T00:18:41;5.00;99.90
16384;DHT22;8301;51.440;6.610;2023-04-25T00:21:08;5.00;99.90
16384;DHT22;8301;51.440;6.610;2023-04-25T00:23:36;5.10;99.90
16384;DHT22;8301;51.440;6.610;2023-04-25T00:26:04;5.20;99.90
16384;DHT22;8301;51.440;6.610;2023-04-25T00:28:31;5.20;99.90
16384;DHT22;8301;51.440;6.610;2023-04-25T00:30:58;5.40;99.90
16384;DHT22;8301;51.440;6.610;2023-04-25T00:33:25;5.40;99.90
16384;DHT22;8301;51.440;6.610;2023-04-25T00:35:52;5.50;99.90
16384;DHT22;8301;51.440;6.610;2023-04-25T00:38:18;5.50;99.90
16384;DHT22;8301;51.440;6.610;2023-04-25T00:40:45;5.50;99.90
16384;DHT22;8301;51.440;6.610;2023-04-25T00:43:12;5.50;99.90
16384;DHT22;8301;51.440;6.610;2023-04-25T00:45:39;5.40;99.90
16384;DHT22;8301;51.440;6.610;2023-04-25T00:48:09;5.50;99.90
16384;DHT22;8301;51.440;6.610;2023-04-25T00:50:36;5.50;99.90
16384;DHT22;8301;51.440;6.610;2023-04-25T00:53:03;5.60;99.90
16384;DHT22;8301;51.440;6.610;2023-04-25T00:55:30;5.60;99.90
16384;DHT22;8301;51.440;6.610;2023-04-25T00:57:58;5.70;99.90
16384;DHT22;8301;51.440;6.610;2023-04-25T01:00:24;5.80;99.90
16384;DHT22;8301;51.440;6.610;2023-04-25T01:02:51;5.80;99.90
16384;DHT22;8301;51.440;6.610;2023-04-25T01:05:18;5.90;99.90
16384;DHT22;8301;51.440;6.610;2023-04-25T01:07:45;5.90;99.90
16384;DHT22;8301;51.440;6.610;2023-04-25T01:10:13;5.90;99.90
16384;DHT22;8301;51.440;6.610;2023-04-25T01:12:39;6.00;99.90
16384;DHT22;8301;51.440;6.610;2023-04-25T01:15:06;6.00;99.90
16384;DHT22;8301;51.440;6.610;2023-04-25T01:17:34;6.00;99.90
16384;DHT22;8301;51.440;6.610;2023-04-25T01:20:06;6.00;99.90
16384;DHT22;8301;51.440;6.610;2023-04-25T01:22:30;6.10;99.90
16384;DHT22;8301;51.440;6.610;2023-04-25T01:24:57;6.10;99.90
16384;DHT22;8301;51.440;6.610;2023-04-25T01:27:24;6.10;99.90
16384;DHT22;8301;51.440;6.610;2023-04-25T01:29:52;6.10;99.90
16384;DHT22;8301;51.440;6.610;2023-04-25T01:32:20;6.10;99.90
16384;DHT22;8301;51.440;6.610;2023-04-25T01:34:48;6.10;99.90
16384;DHT22;8301;51.440;6.610;2023-04-25T01:37:16;6.10;99.90
16384;DHT22;8301;51.440;6.610;2023-04-25T01:39:43;6.10;99.90
16384;DHT22;8301;51.440;6.610;2023-04-25T01:42:12;6.10;99.90
16384;DHT22;8301;51.440;6.610;2023-04-25T01:44:38;6.10;99.90
16384;DHT22;8301;51.440;6.610;2023-04-25T01:47:05;6.10;99.90
16384;DHT22;8301;51.440;6.610;2023-04-25T01:49:32;6.10;99.90
16384;DHT22;8301;51.440;6.610;2023-04-25T01:51:59;6.10;99.90
16384;DHT22;8301;51.440;6.610;2023-04-25T01:54:26;6.10;99.90
16384;DHT22;8301;51.440;6.610;2023-04-25T01:56:52;6.10;99.90
16384;DHT22;8301;51.440;6.610;2023-04-25T01:59:19;6.00;99.90
16384;DHT22;8301;51.440;6.610;2023-04-25T02:01:47;6.00;99.90
16384;DHT22;8301;51.440;6.610;2023-04-25T02:04:14;5.90;99.90
16384;DHT22;8301;51.440;6.610;2023-04-25T02:06:41;5.80;99.90
16384;DHT22;8301;51.440;6.610;2023-04-25T02:09:08;5.80;99.90
16384;DHT22;8301;51.440;6.610;2023-04-25T02:11:34;5.70;99.90
16384;DHT22;8301;51.440;6.610;2023-04-25T02:14:01;5.70;99.90
16384;DHT22;8301;51.440;6.610;2023-04-25T02:16:28;5.70;99.90
16384;DHT22;8301;51.440;6.610;2023-04-25T02:18:56;5.80;99.90
16384;DHT22;8301;51.440;6.610;2023-04-25T02:21:23;5.80;99.90
16384;DHT22;8301;51.440;6.610;2023-04-25T02:23:49;5.80;99.90
16384;DHT22;8301;51.440;6.610;2023-04-25T02:26:17;5.80;99.90
16384;DHT22;8301;51.440;6.610;2023-04-25T02:28:44;5.80;99.90
16384;DHT22;8301;51.440;6.610;2023-04-25T02:31:11;5.80;99.90
16384;DHT22;8301;51.440;6.610;2023-04-25T02:33:38;5.80;99.90
16384;DHT22;8301;51.440;6.610;2023-04-25T02:36:05;5.70;99.90
16384;DHT22;8301;51.440;6.610;2023-04-25T02:38:32;5.70;99.90
16384;DHT22;8301;51.440;6.610;2023-04-25T02:40:59;5.70;99.90
16384;DHT22;8301;51.440;6.610;2023-04-25T02:43:26;5.60;99.90
16384;DHT22;8301;51.440;6.610;2023-04-25T02:45:53;5.60;99.90
16384;DHT22;8301;51.440;6.610;2023-04-25T02:48:20;5.60;99.90
16384;DHT22;8301;51.440;6.610;2023-04-25T02:50:47;5.60;99.90
16384;DHT22;8301;51.440;6.610;2023-04-25T02:53:13;5.60;99.90
16384;DHT22;8301;51.440;6.610;2023-04-25T02:55:41;5.60;99.90
16384;DHT22;8301;51.440;6.610;2023-04-25T02:58:07;5.60;99.90
16384;DHT22;8301;51.440;6.610;2023-04-25T03:00:34;5.70;99.90
16384;DHT22;8301;51.440;6.610;2023-04-25T03:03:01;5.60;99.90
16384;DHT22;8301;51.440;6.610;2023-04-25T03:05:29;5.70;99.90
16384;DHT22;8301;51.440;6.610;2023-04-25T03:07:58;5.70;99.90
16384;DHT22;8301;51.440;6.610;2023-04-25T03:10:25;5.70;99.90
16384;DHT22;8301;51.440;6.610;2023-04-25T03:12:52;5.70;99.90
16384;DHT22;8301;51.440;6.610;2023-04-25T03:15:19;5.70;99.90
16384;DHT22;8301;51.440;6.610;2023-04-25T03:17:48;5.70;99.90
16384;DHT22;8301;51.440;6.610;2023-04-25T03:20:14;5.70;99.90
16384;DHT22;8301;51.440;6.610;2023-04-25T03:22:41;5.60;99.90
16384;DHT22;8301;51.440;6.610;2023-04-25T03:25:08;5.60;99.90
16384;DHT22;8301;51.440;6.610;2023-04-25T03:27:36;5.70;99.90
16384;DHT22;8301;51.440;6.610;2023-04-25T03:30:03;5.70;99.90
16384;DHT22;8301;51.440;6.610;2023-04-25T03:32:30;5.70;99.90
16384;DHT22;8301;51.440;6.610;2023-04-25T03:34:56;5.70;99.90
16384;DHT22;8301;51.440;6.610;2023-04-25T03:37:23;5.70;99.90
16384;DHT22;8301;51.440;6.610;2023-04-25T03:39:51;5.70;99.90
16384;DHT22;8301;51.440;6.610;2023-04-25T03:42:18;5.60;99.90
16384;DHT22;8301;51.440;6.610;2023-04-25T03:44:45;5.70;99.90
16384;DHT22;8301;51.440;6.610;2023-04-25T03:47:12;5.60;99.90
16384;DHT22;8301;51.440;6.610;2023-04-25T03:49:39;5.60;99.90
16384;DHT22;8301;51.440;6.610;2023-04-25T03:52:05;5.60;99.90
16384;DHT22;8301;51.440;6.610;2023-04-25T03:54:32;5.60;99.90
16384;DHT22;8301;51.440;6.610;2023-04-25T03:56:59;5.50;99.90
16384;DHT22;8301;51.440;6.610;2023-04-25T03:59:26;5.50;99.90
16384;DHT22;8301;51.440;6.610;2023-04-25T04:01:53;5.50;99.90
16384;DHT22;8301;51.440;6.610;2023-04-25T04:04:20;5.40;99.90
16384;DHT22;8301;51.440;6.610;2023-04-25T04:06:48;5.40;99.90
16384;DHT22;8301;51.440;6.610;2023-04-25T04:09:15;5.30;99.90
16384;DHT22;8301;51.440;6.610;2023-04-25T04:11:42;5.20;99.90
16384;DHT22;8301;51.440;6.610;2023-04-25T04:14:09;5.10;99.90
16384;DHT22;8301;51.440;6.610;2023-04-25T04:16:36;4.90;99.90
16384;DHT22;8301;51.440;6.610;2023-04-25T04:19:03;4.80;99.90
16384;DHT22;8301;51.440;6.610;2023-04-25T04:21:30;4.80;99.90
16384;DHT22;8301;51.440;6.610;2023-04-25T04:23:57;4.70;99.90
16384;DHT22;8301;51.440;6.610;2023-04-25T04:26:25;4.70;99.90
16384;DHT22;8301;51.440;6.610;2023-04-25T04:28:54;4.50;99.90
16384;DHT22;8301;51.440;6.610;2023-04-25T04:33:56;4.40;99.90
16384;DHT22;8301;51.440;6.610;2023-04-25T04:36:23;4.40;99.90
16384;DHT22;8301;51.440;6.610;2023-04-25T04:38:52;4.40;99.90
16384;DHT22;8301;51.440;6.610;2023-04-25T04:41:19;4.30;99.90
16384;DHT22;8301;51.440;6.610;2023-04-25T04:43:46;4.30;99.90
16384;DHT22;8301;51.440;6.610;2023-04-25T04:46:13;4.20;99.90
16384;DHT22;8301;51.440;6.610;2023-04-25T04:48:40;4.20;99.90
16384;DHT22;8301;51.440;6.610;2023-04-25T04:51:07;4.20;99.90
16384;DHT22;8301;51.440;6.610;2023-04-25T04:53:33;4.20;99.90
16384;DHT22;8301;51.440;6.610;2023-04-25T04:56:00;4.10;99.90
16384;DHT22;8301;51.440;6.610;2023-04-25T04:58:27;4.10;99.90
16384;DHT22;8301;51.440;6.610;2023-04-25T05:00:55;4.10;99.90
16384;DHT22;8301;51.440;6.610;2023-04-25T05:03:22;4.10;99.90
16384;DHT22;8301;51.440;6.610;2023-04-25T05:05:49;4.10;99.90
16384;DHT22;8301;51.440;6.610;2023-04-25T05:08:16;4.20;99.90
16384;DHT22;8301;51.440;6.610;2023-04-25T05:10:45;4.10;99.90
16384;DHT22;8301;51.440;6.610;2023-04-25T05:13:11;4.10;99.90
16384;DHT22;8301;51.440;6.610;2023-04-25T05:15:38;4.20;99.90
16384;DHT22;8301;51.440;6.610;2023-04-25T05:18:05;4.30;99.90
16384;DHT22;8301;51.440;6.610;2023-04-25T05:20:32;4.50;99.90
16384;DHT22;8301;51.440;6.610;2023-04-25T05:22:58;4.60;99.90
16384;DHT22;8301;51.440;6.610;2023-04-25T05:25:25;4.60;99.90
16384;DHT22;8301;51.440;6.610;2023-04-25T05:27:53;4.60;99.90
16384;DHT22;8301;51.440;6.610;2023-04-25T05:30:19;4.70;99.90
16384;DHT22;8301;51.440;6.610;2023-04-25T05:32:47;4.80;99.90
16384;DHT22;8301;51.440;6.610;2023-04-25T05:35:14;4.90;99.90
16384;DHT22;8301;51.440;6.610;2023-04-25T05:37:41;5.00;99.90
16384;DHT22;8301;51.440;6.610;2023-04-25T05:40:08;5.10;99.90
16384;DHT22;8301;51.440;6.610;2023-04-25T05:42:35;5.10;99.90
16384;DHT22;8301;51.440;6.610;2023-04-25T05:45:02;5.30;99.90
16384;DHT22;8301;51.440;6.610;2023-04-25T05:47:29;5.30;99.90
16384;DHT22;8301;51.440;6.610;2023-04-25T05:49:56;5.40;99.90
16384;DHT22;8301;51.440;6.610;2023-04-25T05:52:22;5.40;99.90
16384;DHT22;8301;51.440;6.610;2023-04-25T05:54:49;5.50;99.90
16384;DHT22;8301;51.440;6.610;2023-04-25T05:57:20;5.50;99.90
16384;DHT22;8301;51.440;6.610;2023-04-25T05:59:46;5.50;99.90
16384;DHT22;8301;51.440;6.610;2023-04-25T06:02:13;5.60;99.90
16384;DHT22;8301;51.440;6.610;2023-04-25T06:04:40;5.70;99.90
16384;DHT22;8301;51.440;6.610;2023-04-25T06:07:07;5.70;99.90
16384;DHT22;8301;51.440;6.610;2023-04-25T06:12:05;5.80;99.90
16384;DHT22;8301;51.440;6.610;2023-04-25T06:14:33;5.80;99.90
16384;DHT22;8301;51.440;6.610;2023-04-25T06:17:00;5.70;99.90
16384;DHT22;8301;51.440;6.610;2023-04-25T06:19:28;5.80;99.90
16384;DHT22;8301;51.440;6.610;2023-04-25T06:21:55;5.90;99.90
16384;DHT22;8301;51.440;6.610;2023-04-25T06:24:22;6.00;99.90
16384;DHT22;8301;51.440;6.610;2023-04-25T06:26:49;6.30;99.90
16384;DHT22;8301;51.440;6.610;2023-04-25T06:29:16;6.50;99.90
16384;DHT22;8301;51.440;6.610;2023-04-25T06:31:44;6.70;99.90
16384;DHT22;8301;51.440;6.610;2023-04-25T06:34:11;6.90;99.90
16384;DHT22;8301;51.440;6.610;2023-04-25T06:36:39;7.00;99.90
16384;DHT22;8301;51.440;6.610;2023-04-25T06:39:07;7.30;99.90
16384;DHT22;8301;51.440;6.610;2023-04-25T06:41:34;7.10;99.90
16384;DHT22;8301;51.440;6.610;2023-04-25T06:44:01;6.80;99.90
16384;DHT22;8301;51.440;6.610;2023-04-25T06:46:28;6.80;99.90
16384;DHT22;8301;51.440;6.610;2023-04-25T06:48:55;6.90;99.90
16384;DHT22;8301;51.440;6.610;2023-04-25T06:51:22;7.10;99.90
16384;DHT22;8301;51.440;6.610;2023-04-25T06:53:57;7.20;99.90
16384;DHT22;8301;51.440;6.610;2023-04-25T06:56:23;7.20;99.90
16384;DHT22;8301;51.440;6.610;2023-04-25T06:58:50;7.30;99.90
16384;DHT22;8301;51.440;6.610;2023-04-25T07:01:17;7.50;99.90
16384;DHT22;8301;51.440;6.610;2023-04-25T07:03:44;7.80;99.90
16384;DHT22;8301;51.440;6.610;2023-04-25T07:06:10;7.90;99.90
16384;DHT22;8301;51.440;6.610;2023-04-25T07:08:37;8.10;99.90
16384;DHT22;8301;51.440;6.610;2023-04-25T07:11:04;8.10;31.30
16384;DHT22;8301;51.440;6.610;2023-04-25T07:13:31;8.00;1.00
16384;DHT22;8301;51.440;6.610;2023-04-25T07:15:58;7.80;1.00
16384;DHT22;8301;51.440;6.610;2023-04-25T07:18:27;7.70;1.00
16384;DHT22;8301;51.440;6.610;2023-04-25T07:20:54;7.50;21.90
16384;DHT22;8301;51.440;6.610;2023-04-25T07:23:21;7.60;91.50
16384;DHT22;8301;51.440;6.610;2023-04-25T07:25:47;7.60;1.00
16384;DHT22;8301;51.440;6.610;2023-04-25T07:28:14;7.60;10.00
16384;DHT22;8301;51.440;6.610;2023-04-25T07:30:41;7.70;2.10
16384;DHT22;8301;51.440;6.610;2023-04-25T07:33:08;7.80;91.80
16384;DHT22;8301;51.440;6.610;2023-04-25T07:35:35;8.10;31.30
16384;DHT22;8301;51.440;6.610;2023-04-25T07:38:02;8.20;1.00
16384;DHT22;8301;51.440;6.610;2023-04-25T07:40:29;8.50;1.00
16384;DHT22;8301;51.440;6.610;2023-04-25T07:42:56;8.60;99.90
16384;DHT22;8301;51.440;6.610;2023-04-25T07:45:22;8.80;1.00
16384;DHT22;8301;51.440;6.610;2023-04-25T07:47:50;8.90;82.50
16384;DHT22;8301;51.440;6.610;2023-04-25T07:50:16;8.50;1.00
16384;DHT22;8301;51.440;6.610;2023-04-25T07:52:43;8.50;1.00
16384;DHT22;8301;51.440;6.610;2023-04-25T07:55:10;8.60;1.00
16384;DHT22;8301;51.440;6.610;2023-04-25T07:57:37;8.80;1.00
16384;DHT22;8301;51.440;6.610;2023-04-25T08:00:04;9.00;1.00
16384;DHT22;8301;51.440;6.610;2023-04-25T08:02:33;9.10;22.40
16384;DHT22;8301;51.440;6.610;2023-04-25T08:05:00;9.00;1.00
16384;DHT22;8301;51.440;6.610;2023-04-25T08:07:27;9.20;1.00
16384;DHT22;8301;51.440;6.610;2023-04-25T08:09:54;9.40;1.00
16384;DHT22;8301;51.440;6.610;2023-04-25T08:12:21;9.30;1.00
16384;DHT22;8301;51.440;6.610;2023-04-25T08:14:48;9.20;1.00
16384;DHT22;8301;51.440;6.610;2023-04-25T08:17:14;8.80;1.00
16384;DHT22;8301;51.440;6.610;2023-04-25T08:19:41;8.60;1.00
16384;DHT22;8301;51.440;6.610;2023-04-25T08:22:10;8.70;4.50
16384;DHT22;8301;51.440;6.610;2023-04-25T08:24:36;8.80;99.90
16384;DHT22;8301;51.440;6.610;2023-04-25T08:27:03;8.80;91.40
16384;DHT22;8301;51.440;6.610;2023-04-25T08:29:32;9.10;1.00
16384;DHT22;8301;51.440;6.610;2023-04-25T08:32:00;9.60;1.00
16384;DHT22;8301;51.440;6.610;2023-04-25T08:34:27;9.70;1.00
16384;DHT22;8301;51.440;6.610;2023-04-25T08:36:56;9.40;1.00
16384;DHT22;8301;51.440;6.610;2023-04-25T08:39:22;9.00;1.00
16384;DHT22;8301;51.440;6.610;2023-04-25T08:41:49;8.80;1.00
16384;DHT22;8301;51.440;6.610;2023-04-25T08:44:17;8.50;1.00
16384;DHT22;8301;51.440;6.610;2023-04-25T08:46:44;8.30;1.00
16384;DHT22;8301;51.440;6.610;2023-04-25T08:49:15;8.20;99.90
16384;DHT22;8301;51.440;6.610;2023-04-25T08:51:45;8.10;99.90
16384;DHT22;8301;51.440;6.610;2023-04-25T08:54:17;8.20;1.00
16384;DHT22;8301;51.440;6.610;2023-04-25T08:56:49;8.80;1.00
16384;DHT22;8301;51.440;6.610;2023-04-25T08:59:16;9.40;99.90
16384;DHT22;8301;51.440;6.610;2023-04-25T09:01:43;9.30;99.90
16384;DHT22;8301;51.440;6.610;2023-04-25T09:04:11;9.50;1.00
16384;DHT22;8301;51.440;6.610;2023-04-25T09:06:38;9.80;1.00
16384;DHT22;8301;51.440;6.610;2023-04-25T09:09:06;10.00;99.90
16384;DHT22;8301;51.440;6.610;2023-04-25T09:11:33;9.90;65.70
16384;DHT22;8301;51.440;6.610;2023-04-25T09:14:14;10.00;99.90
16384;DHT22;8301;51.440;6.610;2023-04-25T09:19:32;10.30;1.00
16384;DHT22;8301;51.440;6.610;2023-04-25T09:22:01;10.00;99.90
16384;DHT22;8301;51.440;6.610;2023-04-25T09:24:36;9.80;32.80
16384;DHT22;8301;51.440;6.610;2023-04-25T09:27:03;9.50;1.00
16384;DHT22;8301;51.440;6.610;2023-04-25T09:29:35;9.70;99.90
16384;DHT22;8301;51.440;6.610;2023-04-25T09:34:56;9.30;1.00
16384;DHT22;8301;51.440;6.610;2023-04-25T09:37:27;9.10;1.00
16384;DHT22;8301;51.440;6.610;2023-04-25T09:39:55;9.10;99.90
16384;DHT22;8301;51.440;6.610;2023-04-25T09:42:28;9.10;1.00
16384;DHT22;8301;51.440;6.610;2023-04-25T09:44:57;9.30;99.90
16384;DHT22;8301;51.440;6.610;2023-04-25T09:47:25;9.60;99.90
16384;DHT22;8301;51.440;6.610;2023-04-25T09:49:53;9.60;99.90
16384;DHT22;8301;51.440;6.610;2023-04-25T09:52:21;9.60;1.00
16384;DHT22;8301;51.440;6.610;2023-04-25T09:54:49;9.80;1.00
16384;DHT22;8301;51.440;6.610;2023-04-25T09:57:16;10.00;1.00
16384;DHT22;8301;51.440;6.610;2023-04-25T09:59:44;10.00;99.90
16384;DHT22;8301;51.440;6.610;2023-04-25T10:02:13;10.40;1.00
16384;DHT22;8301;51.440;6.610;2023-04-25T10:04:41;10.40;1.00
16384;DHT22;8301;51.440;6.610;2023-04-25T10:07:08;10.40;1.00
16384;DHT22;8301;51.440;6.610;2023-04-25T10:09:38;10.70;99.90
16384;DHT22;8301;51.440;6.610;2023-04-25T10:12:06;10.70;1.00
16384;DHT22;8301;51.440;6.610;2023-04-25T10:14:34;10.40;1.00
16384;DHT22;8301;51.440;6.610;2023-04-25T10:17:14;10.10;1.00
16384;DHT22;8301;51.440;6.610;2023-04-25T10:19:42;10.00;1.00
16384;DHT22;8301;51.440;6.610;2023-04-25T10:24:38;9.90;1.00
16384;DHT22;8301;51.440;6.610;2023-04-25T10:27:06;9.80;78.20
16384;DHT22;8301;51.440;6.610;2023-04-25T10:29:34;9.80;1.00
16384;DHT22;8301;51.440;6.610;2023-04-25T10:32:02;10.10;99.90
16384;DHT22;8301;51.440;6.610;2023-04-25T10:34:38;10.50;1.00
16384;DHT22;8301;51.440;6.610;2023-04-25T10:37:12;10.70;1.00
16384;DHT22;8301;51.440;6.610;2023-04-25T10:39:40;11.30;1.00
16384;DHT22;8301;51.440;6.610;2023-04-25T10:42:18;11.80;99.90
16384;DHT22;8301;51.440;6.610;2023-04-25T10:45:00;11.90;1.00
16384;DHT22;8301;51.440;6.610;2023-04-25T10:47:14;11.80;27.00
16384;DHT22;8301;51.440;6.610;2023-04-25T10:49:50;11.80;99.90
16384;DHT22;8301;51.440;6.610;2023-04-25T10:52:18;11.20;1.00
16384;DHT22;8301;51.440;6.610;2023-04-25T10:54:49;10.70;1.00
16384;DHT22;8301;51.440;6.610;2023-04-25T10:57:29;10.40;1.00
16384;DHT22;8301;51.440;6.610;2023-04-25T11:02:46;9.90;1.00
16384;DHT22;8301;51.440;6.610;2023-04-25T11:05:15;9.70;99.90
16384;DHT22;8301;51.440;6.610;2023-04-25T11:10:10;9.60;99.90
16384;DHT22;8301;51.440;6.610;2023-04-25T11:12:37;9.10;1.00
16384;DHT22;8301;51.440;6.610;2023-04-25T11:15:05;9.20;1.00
16384;DHT22;8301;51.440;6.610;2023-04-25T11:17:32;9.10;1.00
16384;DHT22;8301;51.440;6.610;2023-04-25T11:22:37;8.60;1.00
16384;DHT22;8301;51.440;6.610;2023-04-25T11:25:06;8.60;1.00
16384;DHT22;8301;51.440;6.610;2023-04-25T11:27:49;8.50;1.00
16384;DHT22;8301;51.440;6.610;2023-04-25T11:30:17;8.20;99.90
16384;DHT22;8301;51.440;6.610;2023-04-25T11:32:44;8.20;1.00
16384;DHT22;8301;51.440;6.610;2023-04-25T11:35:12;8.30;99.90
16384;DHT22;8301;51.440;6.610;2023-04-25T11:37:39;8.30;99.90
16384;DHT22;8301;51.440;6.610;2023-04-25T11:40:06;8.20;1.00
16384;DHT22;8301;51.440;6.610;2023-04-25T11:42:39;8.10;99.90
16384;DHT22;8301;51.440;6.610;2023-04-25T11:45:06;7.70;1.00
16384;DHT22;8301;51.440;6.610;2023-04-25T11:47:33;7.60;1.00
16384;DHT22;8301;51.440;6.610;2023-04-25T11:50:04;7.60;1.00
16384;DHT22;8301;51.440;6.610;2023-04-25T11:52:47;7.50;1.00
16384;DHT22;8301;51.440;6.610;2023-04-25T11:55:15;7.30;99.90
16384;DHT22;8301;51.440;6.610;2023-04-25T11:57:42;7.40;99.90
16384;DHT22;8301;51.440;6.610;2023-04-25T12:00:11;7.60;99.90
16384;DHT22;8301;51.440;6.610;2023-04-25T12:02:43;7.60;99.90
16384;DHT22;8301;51.440;6.610;2023-04-25T12:05:11;7.80;99.90
16384;DHT22;8301;51.440;6.610;2023-04-25T12:07:38;8.00;99.90
16384;DHT22;8301;51.440;6.610;2023-04-25T12:10:07;8.20;99.90
16384;DHT22;8301;51.440;6.610;2023-04-25T12:12:35;8.00;99.90
16384;DHT22;8301;51.440;6.610;2023-04-25T12:15:14;8.20;99.90
16384;DHT22;8301;51.440;6.610;2023-04-25T12:17:38;8.20;10.50
16384;DHT22;8301;51.440;6.610;2023-04-25T12:20:09;8.30;99.90
16384;DHT22;8301;51.440;6.610;2023-04-25T12:22:33;8.50;1.00
16384;DHT22;8301;51.440;6.610;2023-04-25T12:25:00;8.60;1.00
16384;DHT22;8301;51.440;6.610;2023-04-25T12:27:35;8.80;74.90
16384;DHT22;8301;51.440;6.610;2023-04-25T12:30:01;9.20;1.00
16384;DHT22;8301;51.440;6.610;2023-04-25T12:32:29;9.80;1.00
16384;DHT22;8301;51.440;6.610;2023-04-25T12:34:57;9.60;99.90
16384;DHT22;8301;51.440;6.610;2023-04-25T12:37:24;9.50;99.90
16384;DHT22;8301;51.440;6.610;2023-04-25T12:39:51;9.40;26.80
16384;DHT22;8301;51.440;6.610;2023-04-25T12:42:17;9.50;99.90
16384;DHT22;8301;51.440;6.610;2023-04-25T12:44:44;9.80;99.90
16384;DHT22;8301;51.440;6.610;2023-04-25T12:47:13;10.30;99.90
16384;DHT22;8301;51.440;6.610;2023-04-25T12:49:40;10.50;99.90
16384;DHT22;8301;51.440;6.610;2023-04-25T12:52:07;10.20;1.00
16384;DHT22;8301;51.440;6.610;2023-04-25T12:54:34;10.60;77.60
16384;DHT22;8301;51.440;6.610;2023-04-25T12:57:01;11.00;1.00
16384;DHT22;8301;51.440;6.610;2023-04-25T12:59:28;11.60;1.00
16384;DHT22;8301;51.440;6.610;2023-04-25T13:01:55;11.50;99.90
16384;DHT22;8301;51.440;6.610;2023-04-25T13:04:22;11.20;99.90
16384;DHT22;8301;51.440;6.610;2023-04-25T13:06:49;10.50;1.00
16384;DHT22;8301;51.440;6.610;2023-04-25T13:09:16;9.90;99.90
16384;DHT22;8301;51.440;6.610;2023-04-25T13:11:44;9.70;1.00
16384;DHT22;8301;51.440;6.610;2023-04-25T13:14:11;9.50;2.40
16384;DHT22;8301;51.440;6.610;2023-04-25T13:16:38;9.40;1.00
16384;DHT22;8301;51.440;6.610;2023-04-25T13:19:05;9.50;6.10
16384;DHT22;8301;51.440;6.610;2023-04-25T13:21:33;9.40;99.90
16384;DHT22;8301;51.440;6.610;2023-04-25T13:24:00;9.40;1.00
16384;DHT22;8301;51.440;6.610;2023-04-25T13:26:27;9.20;1.00
16384;DHT22;8301;51.440;6.610;2023-04-25T13:28:54;9.20;99.90
16384;DHT22;8301;51.440;6.610;2023-04-25T13:31:21;9.30;1.00
16384;DHT22;8301;51.440;6.610;2023-04-25T13:33:48;9.70;1.00
16384;DHT22;8301;51.440;6.610;2023-04-25T13:36:15;9.80;99.90
16384;DHT22;8301;51.440;6.610;2023-04-25T13:38:41;9.90;99.90
16384;DHT22;8301;51.440;6.610;2023-04-25T13:41:17;9.70;99.90
16384;DHT22;8301;51.440;6.610;2023-04-25T13:43:45;9.80;99.90
16384;DHT22;8301;51.440;6.610;2023-04-25T13:46:14;9.80;99.90
16384;DHT22;8301;51.440;6.610;2023-04-25T13:48:41;9.80;1.00
16384;DHT22;8301;51.440;6.610;2023-04-25T13:51:10;9.80;1.00
16384;DHT22;8301;51.440;6.610;2023-04-25T13:53:38;9.80;1.00
16384;DHT22;8301;51.440;6.610;2023-04-25T13:56:05;9.70;28.30
16384;DHT22;8301;51.440;6.610;2023-04-25T13:58:32;9.70;99.90
16384;DHT22;8301;51.440;6.610;2023-04-25T14:01:05;9.90;99.90
16384;DHT22;8301;51.440;6.610;2023-04-25T14:03:32;10.60;1.00
16384;DHT22;8301;51.440;6.610;2023-04-25T14:05:59;11.20;1.00
16384;DHT22;8301;51.440;6.610;2023-04-25T14:08:26;11.30;1.00
16384;DHT22;8301;51.440;6.610;2023-04-25T14:10:54;11.40;1.00
16384;DHT22;8301;51.440;6.610;2023-04-25T14:13:21;11.40;99.90
16384;DHT22;8301;51.440;6.610;2023-04-25T14:15:49;11.20;1.00
16384;DHT22;8301;51.440;6.610;2023-04-25T14:18:16;10.90;1.00
16384;DHT22;8301;51.440;6.610;2023-04-25T14:20:43;10.80;1.00
16384;DHT22;8301;51.440;6.610;2023-04-25T14:23:11;10.70;1.00
16384;DHT22;8301;51.440;6.610;2023-04-25T14:25:38;10.70;99.90
16384;DHT22;8301;51.440;6.610;2023-04-25T14:28:05;11.00;99.90
16384;DHT22;8301;51.440;6.610;2023-04-25T14:30:32;11.00;1.00
16384;DHT22;8301;51.440;6.610;2023-04-25T14:32:58;10.60;1.00
16384;DHT22;8301;51.440;6.610;2023-04-25T14:35:25;10.50;1.00
16384;DHT22;8301;51.440;6.610;2023-04-25T14:37:52;10.10;1.00
16384;DHT22;8301;51.440;6.610;2023-04-25T14:40:19;9.90;1.00
16384;DHT22;8301;51.440;6.610;2023-04-25T14:42:48;9.80;1.00
16384;DHT22;8301;51.440;6.610;2023-04-25T14:45:15;9.80;99.90
16384;DHT22;8301;51.440;6.610;2023-04-25T14:47:42;10.00;99.90
16384;DHT22;8301;51.440;6.610;2023-04-25T14:50:10;10.30;1.00
16384;DHT22;8301;51.440;6.610;2023-04-25T14:52:36;10.60;1.00
16384;DHT22;8301;51.440;6.610;2023-04-25T14:55:03;10.80;1.00
16384;DHT22;8301;51.440;6.610;2023-04-25T14:57:34;10.90;1.00
16384;DHT22;8301;51.440;6.610;2023-04-25T15:00:01;10.60;1.00
16384;DHT22;8301;51.440;6.610;2023-04-25T15:02:28;10.40;1.00
16384;DHT22;8301;51.440;6.610;2023-04-25T15:04:55;10.10;1.00
16384;DHT22;8301;51.440;6.610;2023-04-25T15:07:22;9.90;1.00
16384;DHT22;8301;51.440;6.610;2023-04-25T15:09:49;9.60;96.40
16384;DHT22;8301;51.440;6.610;2023-04-25T15:12:17;9.40;1.00
16384;DHT22;8301;51.440;6.610;2023-04-25T15:14:44;9.30;99.90
16384;DHT22;8301;51.440;6.610;2023-04-25T15:17:11;9.30;1.00
16384;DHT22;8301;51.440;6.610;2023-04-25T15:19:39;9.20;99.90
16384;DHT22;8301;51.440;6.610;2023-04-25T15:22:06;9.30;99.90
16384;DHT22;8301;51.440;6.610;2023-04-25T15:24:33;9.40;99.90
16384;DHT22;8301;51.440;6.610;2023-04-25T15:27:00;9.40;99.90
16384;DHT22;8301;51.440;6.610;2023-04-25T15:29:27;9.40;99.90
16384;DHT22;8301;51.440;6.610;2023-04-25T15:31:54;9.20;1.00
16384;DHT22;8301;51.440;6.610;2023-04-25T15:34:21;9.20;1.00
16384;DHT22;8301;51.440;6.610;2023-04-25T15:36:48;9.50;1.00
16384;DHT22;8301;51.440;6.610;2023-04-25T15:39:15;10.00;15.30
16384;DHT22;8301;51.440;6.610;2023-04-25T15:41:42;10.40;1.00
16384;DHT22;8301;51.440;6.610;2023-04-25T15:44:09;10.70;1.00
16384;DHT22;8301;51.440;6.610;2023-04-25T15:46:36;10.70;1.00
16384;DHT22;8301;51.440;6.610;2023-04-25T15:49:02;10.30;99.90
16384;DHT22;8301;51.440;6.610;2023-04-25T15:51:29;9.90;99.90
16384;DHT22;8301;51.440;6.610;2023-04-25T15:53:58;9.70;1.00
16384;DHT22;8301;51.440;6.610;2023-04-25T15:56:27;9.60;1.00
16384;DHT22;8301;51.440;6.610;2023-04-25T15:58:53;9.50;1.00
16384;DHT22;8301;51.440;6.610;2023-04-25T16:01:22;9.50;1.00
16384;DHT22;8301;51.440;6.610;2023-04-25T16:03:51;9.50;1.00
16384;DHT22;8301;51.440;6.610;2023-04-25T16:06:17;9.50;1.00
16384;DHT22;8301;51.440;6.610;2023-04-25T16:08:44;9.50;1.00
16384;DHT22;8301;51.440;6.610;2023-04-25T16:11:11;9.80;1.00
16384;DHT22;8301;51.440;6.610;2023-04-25T16:13:39;10.20;1.00
16384;DHT22;8301;51.440;6.610;2023-04-25T16:16:06;10.50;1.00
16384;DHT22;8301;51.440;6.610;2023-04-25T16:18:33;10.60;99.90
16384;DHT22;8301;51.440;6.610;2023-04-25T16:21:00;10.20;99.90
16384;DHT22;8301;51.440;6.610;2023-04-25T16:23:26;10.00;99.90
16384;DHT22;8301;51.440;6.610;2023-04-25T16:25:53;9.70;99.90
16384;DHT22;8301;51.440;6.610;2023-04-25T16:28:20;9.50;99.90